Latest Weather Observations for Campbelltown

IDN60901

Issued at 5:25 pm EST Wednesday 16 April 2014 (issued every 10 minutes, with the page automatically refreshed every 10 minutes)

About weather observations | Map of Sydney area stations | Latest observations for Sydney area | Other Formats
Station Details ID: 068257 Name: CAMPBELLTOWN (MOUNT ANNAN) Lat: -34.06 Lon: 150.77 Height: 112.0 m
Data from the previous 72 hours. | See also: Recent months at Campbelltown
Date/Time
EST
Tmp

°C
App
Tmp
°C
Dew
Point
°C
Rel
Hum
%
Delta-T

°C
Wind Press
QNH
hPa
Press
MSL
hPa
Rain
since
9 am
mm
Dir
 
Spd
km/h
Gust
km/h
Spd
kts
Gust
kts
16/05:00pm 19.7 18.7 10.9 57 4.8 S 7 13 4 7 - - 0.0
16/04:30pm 20.3 18.4 10.4 53 5.4 SSE 11 20 6 11 - - 0.0
16/04:00pm 22.2 20.7 10.7 48 6.4 S 9 15 5 8 - - 0.0
16/03:30pm 22.5 21.5 10.9 48 6.4 S 7 15 4 8 - - 0.0
16/03:00pm 22.3 21.1 11.7 51 6.0 S 9 15 5 8 - - 0.0
16/02:30pm 23.1 22.2 11.2 47 6.7 S 7 17 4 9 - - 0.0
16/02:00pm 22.0 19.6 10.2 47 6.5 S 13 22 7 12 - - 0.0
16/01:30pm 22.5 21.2 12.4 52 5.8 S 11 17 6 9 - - 0.0
16/01:00pm 22.4 21.4 12.4 53 5.7 S 9 24 5 13 - - 0.0
16/12:30pm 21.7 20.1 11.7 53 5.6 S 11 24 6 13 - - 0.0
16/12:00pm 21.5 19.7 12.1 55 5.3 SSW 13 20 7 11 - - 0.0
16/11:30am 20.4 18.5 11.9 58 4.8 SSW 13 22 7 12 - - 0.0
16/11:00am 21.4 20.1 13.6 61 4.5 S 13 22 7 12 - - 0.0
16/10:30am 20.5 18.8 12.5 60 4.5 SSW 13 20 7 11 - - 0.0
16/10:00am 19.5 16.7 11.5 60 4.4 SSW 17 26 9 14 - - 0.0
16/09:30am 18.8 15.9 10.9 60 4.3 SSW 17 30 9 16 - - 0.0
16/09:00am 17.7 15.1 10.6 63 3.8 SW 15 26 8 14 - - 0.0
16/08:30am 17.4 15.0 10.1 62 3.9 SSW 13 24 7 13 - - 0.0
16/08:00am 16.8 14.9 10.4 66 3.4 SW 11 19 6 10 - - 0.0
16/07:30am 15.4 13.4 10.0 70 2.8 SW 11 19 6 10 - - 0.0
16/07:00am 14.8 12.7 9.8 72 2.6 SW 11 20 6 11 - - 0.0
16/06:30am 14.1 12.0 9.7 75 2.3 SW 11 15 6 8 - - 0.0
16/06:00am 14.3 12.6 9.9 75 2.3 SW 9 13 5 7 - - 0.0
16/05:30am 14.6 13.0 10.2 75 2.3 SSW 9 15 5 8 - - 0.0
16/05:00am 14.5 12.5 10.3 76 2.2 SW 11 13 6 7 - - 0.0
16/04:30am 14.3 12.8 10.7 79 1.9 SW 9 15 5 8 - - 0.0
16/04:00am 13.4 12.2 10.4 82 1.6 SW 7 15 4 8 - - 0.0
16/03:30am 12.9 11.9 10.4 85 1.3 SW 6 9 3 5 - - 0.0
16/03:00am 13.3 12.2 10.7 84 1.4 SSW 7 13 4 7 - - 0.0
16/02:30am 12.9 11.9 11.0 88 1.0 WSW 7 9 4 5 - - 0.0
16/02:00am 12.2 11.3 10.6 90 0.8 SSW 6 9 3 5 - - 0.0
16/01:30am 12.5 12.4 10.7 89 0.9 SW 2 6 1 3 - - 0.0
16/01:00am 12.7 12.9 10.4 86 1.2 CALM 0 0 0 0 - - 0.0
16/12:30am 13.7 13.6 10.9 83 1.5 SSW 2 6 1 3 - - 0.0
16/12:00am 14.9 14.7 11.7 81 1.7 S 4 7 2 4 - - 0.0
 
Date/Time
EST
Tmp

°C
App
Tmp
°C
Dew
Point
°C
Rel
Hum
%
Delta-T

°C
Wind Press
QNH
hPa
Press
MSL
hPa
Rain
since
9 am
mm
Dir
 
Spd
km/h
Gust
km/h
Spd
kts
Gust
kts
15/11:30pm 15.7 15.6 12.1 79 2.0 SSW 4 7 2 4 - - 0.0
15/11:00pm 16.1 15.7 12.3 78 2.1 SSW 6 11 3 6 - - 0.0
15/10:30pm 16.3 15.4 12.5 78 2.1 S 9 20 5 11 - - 0.0
15/10:00pm 16.1 15.6 12.7 80 1.9 SSW 7 13 4 7 - - 0.0
15/09:30pm 16.2 15.3 12.7 80 1.9 S 9 15 5 8 - - 0.0
15/09:00pm 16.5 15.1 12.3 76 2.3 S 11 22 6 12 - - 0.0
15/08:30pm 16.7 15.7 12.3 75 2.4 S 9 15 5 8 - - 0.0
15/08:00pm 16.6 15.6 12.4 76 2.3 S 9 19 5 10 - - 0.0
15/07:30pm 16.3 15.8 12.5 78 2.1 S 7 13 4 7 - - 0.0
15/07:00pm 17.0 15.6 12.1 73 2.7 S 11 20 6 11 - - 0.0
15/06:30pm 17.3 15.2 12.4 73 2.7 S 15 24 8 13 - - 0.0
15/06:00pm 17.6 16.4 12.7 73 2.7 S 11 24 6 13 - - 0.0
15/05:30pm 17.8 16.6 12.7 72 2.9 S 11 20 6 11 - - 0.0
15/05:00pm 18.2 17.1 13.1 72 2.9 S 11 20 6 11 - - 0.0
15/04:30pm 19.0 17.4 12.7 67 3.6 S 13 28 7 15 - - 0.0
15/04:00pm 20.3 19.3 12.3 60 4.5 SSE 9 20 5 11 - - 0.0
15/03:30pm 20.9 19.3 10.1 50 5.9 S 9 15 5 8 - - 0.0
15/03:00pm 21.9 19.8 9.8 46 6.6 S 11 19 6 10 - - 0.0
15/02:30pm 22.4 21.0 8.9 42 7.2 SW 6 9 3 5 - - 0.0
15/02:00pm 21.8 20.1 9.7 46 6.6 SSW 9 17 5 9 - - 0.0
15/01:30pm 22.0 20.1 8.9 43 7.0 SSW 9 15 5 8 - - 0.0
15/01:00pm 21.7 19.9 9.3 45 6.7 SSW 9 13 5 7 - - 0.0
15/12:30pm 20.8 18.7 8.4 45 6.5 WSW 9 13 5 7 - - 0.0
15/12:00pm 21.5 19.8 10.0 48 6.3 SSW 9 15 5 8 - - 0.0
15/11:30am 21.3 19.8 9.2 46 6.5 W 7 13 4 7 - - 0.0
15/11:00am 21.3 18.8 8.2 43 6.9 S 11 20 6 11 - - 0.0
15/10:30am 20.5 18.7 9.4 49 5.9 S 9 17 5 9 - - 0.0
15/10:00am 19.8 18.4 9.7 52 5.4 S 7 13 4 7 - - 0.0
15/09:30am 17.9 15.4 8.2 53 5.0 SSW 11 15 6 8 - - 0.0
15/09:00am 17.2 15.3 8.9 58 4.3 SSW 9 13 5 7 - - 0.0
15/08:30am 15.8 14.4 9.5 66 3.3 SW 7 11 4 6 - - 0.0
15/08:00am 14.4 13.6 9.6 73 2.5 SW 4 9 2 5 - - 0.0
15/07:30am 12.6 11.7 9.4 81 1.6 SW 4 9 2 5 - - 0.0
15/07:00am 11.3 10.7 9.0 86 1.2 SW 2 9 1 5 - - 0.0
15/06:30am 10.8 9.4 8.9 88 0.9 SW 6 13 3 7 - - 0.0
15/06:00am 11.5 10.0 9.1 85 1.2 SW 7 11 4 6 - - 0.0
15/05:30am 11.7 10.0 9.8 88 1.0 SW 9 19 5 10 - - 0.0
15/05:00am 10.9 9.7 9.5 91 0.7 SSW 6 9 3 5 - - 0.0
15/04:30am 11.1 9.9 9.7 91 0.7 S 6 9 3 5 - - 0.0
15/04:00am 11.4 10.2 9.7 89 0.9 S 6 9 3 5 - - 0.0
15/03:30am 11.8 10.6 10.2 90 0.8 S 7 11 4 6 - - 0.0
15/03:00am 11.4 10.4 10.3 93 0.6 SSW 6 9 3 5 - - 0.0
15/02:30am 10.7 9.9 9.8 94 0.5 SSW 4 7 2 4 - - 0.0
15/02:00am 10.7 10.6 9.5 92 0.6 CALM 0 0 0 0 - - 0.0
15/01:30am 11.4 10.7 10.0 91 0.7 SSW 4 7 2 4 - - 0.0
15/01:00am 11.8 11.5 10.0 89 0.9 SW 2 6 1 3 - - 0.0
15/12:30am 12.4 12.2 10.3 87 1.1 SSW 2 6 1 3 - - 0.0
15/12:00am 13.2 13.4 10.7 85 1.3 CALM 0 0 0 0 - - 0.0
 
Date/Time
EST
Tmp

°C
App
Tmp
°C
Dew
Point
°C
Rel
Hum
%
Delta-T

°C
Wind Press
QNH
hPa
Press
MSL
hPa
Rain
since
9 am
mm
Dir
 
Spd
km/h
Gust
km/h
Spd
kts
Gust
kts
14/11:30pm 14.2 14.2 11.2 82 1.6 SSW 2 6 1 3 - - 0.0
14/11:00pm 14.2 13.8 11.2 82 1.6 SSW 4 6 2 3 - - 0.0
14/10:30pm 14.2 14.2 11.0 81 1.7 S 2 7 1 4 - - 0.0
14/10:00pm 14.9 13.9 10.9 77 2.1 SSW 7 11 4 6 - - 0.0
14/09:30pm 15.4 14.3 10.6 73 2.5 SW 7 13 4 7 - - 0.0
14/09:00pm 15.6 14.7 11.2 75 2.4 WSW 7 11 4 6 - - 0.0
14/08:30pm 15.6 14.7 11.2 75 2.4 SW 7 9 4 5 - - 0.0
14/08:00pm 15.6 15.1 12.2 80 1.9 W 6 7 3 4 - - 0.0
14/07:30pm 15.4 16.1 12.2 81 1.8 CALM 0 6 0 3 - - 0.0
14/07:00pm 15.6 15.9 12.2 80 1.9 S 2 7 1 4 - - 0.0
14/06:30pm 15.5 16.3 12.4 82 1.7 CALM 0 0 0 0 - - 0.0
14/06:00pm 15.8 15.3 12.0 78 2.1 S 6 9 3 5 - - 0.0
14/05:30pm 16.1 16.1 12.5 79 2.0 S 4 9 2 5 - - 0.0
14/05:00pm 16.8 16.8 12.5 76 2.4 S 4 9 2 5 - - 0.0
14/04:30pm 16.6 15.8 12.8 78 2.1 SSE 9 19 5 10 - - 0.0
14/04:00pm 17.3 16.0 12.4 73 2.7 S 11 17 6 9 - - 0.0
14/03:30pm 18.3 17.2 13.0 71 3.0 S 11 20 6 11 - - 0.0
14/03:00pm 19.4 18.0 12.2 63 4.0 S 11 20 6 11 - - 0.0
14/02:30pm 20.3 18.3 12.8 62 4.3 S 15 24 8 13 - - 0.0
14/02:00pm 20.1 18.7 13.3 65 3.9 S 13 24 7 13 - - 0.0
14/01:30pm 19.7 17.8 12.9 65 3.9 SSE 15 26 8 14 - - 0.0
14/01:00pm 19.9 18.3 12.7 63 4.1 S 13 26 7 14 - - 0.0
14/12:30pm 20.4 18.8 12.9 62 4.3 S 13 20 7 11 - - 0.0
14/12:00pm 19.8 17.5 13.0 65 3.9 SSW 17 26 9 14 - - 0.0
14/11:30am 20.2 18.6 11.4 57 4.9 S 11 20 6 11 - - 0.0
14/11:00am 19.5 18.5 12.3 63 4.0 S 9 15 5 8 - - 0.0
14/10:30am 19.1 18.2 11.2 60 4.3 SSW 7 15 4 8 - - 0.0
14/10:00am 18.5 16.8 11.1 62 4.0 SSW 11 17 6 9 - - 0.0
14/09:30am 17.6 16.3 10.0 61 4.0 SW 7 13 4 7 - - 0.0
14/09:00am 15.5 14.1 9.6 68 3.1 SW 7 13 4 7 - - 0.0
14/08:30am 14.5 13.0 9.1 70 2.8 SW 7 15 4 8 - - 0.0
14/08:00am 14.1 12.1 8.5 69 2.8 SW 9 15 5 8 - - 0.0
14/07:30am 11.9 10.8 8.4 79 1.7 SSW 4 9 2 5 - - 0.0
14/07:00am 10.7 8.9 7.0 78 1.8 SSW 6 11 3 6 - - 0.0
14/06:30am 9.6 7.7 6.9 83 1.3 SW 6 11 3 6 - - 0.0
14/06:00am 10.3 9.5 6.6 78 1.7 CALM 0 0 0 0 - - 0.0
14/05:30am 11.0 9.1 6.7 75 2.0 SW 6 11 3 6 - - 0.0
14/05:00am 11.7 9.3 6.8 72 2.3 SSW 9 15 5 8 - - 0.0
14/04:30am 11.4 9.4 7.3 76 2.0 SSW 7 11 4 6 - - 0.0
14/04:00am 12.5 9.6 8.0 74 2.2 SSW 13 19 7 10 - - 0.0
14/03:30am 11.9 10.0 9.1 83 1.4 SW 9 17 5 9 - - 0.0
14/03:00am 12.2 10.4 9.6 84 1.3 SW 9 13 5 7 - - 0.0
14/02:30am 11.1 10.7 9.9 92 0.6 SW 2 6 1 3 - - 0.0
14/02:00am 11.3 10.3 10.4 94 0.5 WSW 6 9 3 5 - - 0.0
14/01:30am 10.7 9.6 9.9 95 0.4 WSW 6 7 3 4 - - 0.0
14/01:00am 10.9 11.0 10.1 95 0.4 CALM 0 0 0 0 - - 0.0
14/12:30am 11.0 9.9 9.9 93 0.6 SW 6 9 3 5 - - 0.0
14/12:00am 11.1 11.1 9.7 91 0.7 CALM 0 0 0 0 - - 0.0
 
Date/Time
EST
Tmp

°C
App
Tmp
°C
Dew
Point
°C
Rel
Hum
%
Delta-T

°C
Wind Press
QNH
hPa
Press
MSL
hPa
Rain
since
9 am
mm
Dir
 
Spd
km/h
Gust
km/h
Spd
kts
Gust
kts
13/11:30pm 11.3 10.1 9.4 88 1.0 SSW 6 7 3 4 - - 0.0
13/11:00pm 12.4 12.3 9.6 83 1.4 CALM 0 0 0 0 - - 0.0
13/10:30pm 13.1 12.2 9.4 78 1.9 SSW 4 7 2 4 - - 0.0
13/10:00pm 14.7 13.3 9.7 72 2.6 SW 7 9 4 5 - - 0.0
13/09:30pm 15.0 13.7 9.8 71 2.7 SW 7 13 4 7 - - 0.0
13/09:00pm 15.2 14.1 10.0 71 2.7 SW 6 9 3 5 - - 0.0
13/08:30pm 15.7 14.6 9.8 68 3.1 SSW 6 11 3 6 - - 0.0
13/08:00pm 16.2 15.0 10.3 68 3.1 SSW 7 13 4 7 - - 0.0
13/07:30pm 15.4 14.3 10.8 74 2.5 SSW 7 11 4 6 - - 0.0
13/07:00pm 15.4 15.1 10.2 71 2.7 SSW 2 9 1 5 - - 0.0
13/06:30pm 16.2 14.6 10.3 68 3.1 SSW 9 15 5 8 - - 0.0
13/06:00pm 16.6 15.4 10.2 66 3.4 S 7 20 4 11 - - 0.0
13/05:30pm 17.8 15.7 9.9 60 4.2 SSE 11 26 6 14 - - 0.0

Latest Capital City Observations: Canberra | Sydney | Melbourne | Brisbane | Adelaide | Perth | Hobart | Darwin

Other Formats:

Comma delimited format used in spreadsheet applications
http://www.bom.gov.au/fwo/IDN60901/IDN60901.94757.axf

JavaScript Object Notation format (JSON) in row-major order
http://www.bom.gov.au/fwo/IDN60901/IDN60901.94757.json